Time;durP1;ratioP1;P1;durP2;ratioP2;P2;SDS_P1;SDS_P2;PMS_P1;PMS_P2;Temp;Humidity;BMP_temperature;BMP_pressure;BME280_temperature;BME280_humidity;BME280_pressure;Samples;Min_cycle;Max_cycle;Signal;HPM_P1;HPM_P2
2022/07/21 00:01:13;;;;;;;0.20;0.00;;;25.40;99.90;;;;;;25702277;23;20198;-69
2022/07/21 00:11:17;;;;;;;0.20;0.00;;;25.40;99.90;;;;;;25676325;23;20170;-69
2022/07/21 00:21:22;;;;;;;0.20;0.00;;;25.30;99.90;;;;;;25702087;23;20247;-68
2022/07/21 00:31:26;;;;;;;0.20;0.00;;;25.20;99.90;;;;;;25675677;23;20181;-69
2022/07/21 00:41:31;;;;;;;0.20;0.00;;;25.20;99.90;;;;;;25700900;23;20186;-70
2022/07/21 00:51:34;;;;;;;0.20;0.00;;;25.20;99.90;;;;;;25700906;23;20251;-70
2022/07/21 01:01:40;;;;;;;0.20;0.10;;;25.20;99.90;;;;;;25699905;23;20202;-70
2022/07/21 01:11:44;;;;;;;0.20;0.00;;;25.30;99.90;;;;;;25674126;23;20170;-70
2022/07/21 01:21:50;;;;;;;0.20;0.00;;;25.20;99.90;;;;;;25699280;23;20232;-69
2022/07/21 01:31:54;;;;;;;0.20;0.10;;;25.20;99.90;;;;;;25699056;23;20189;-71
2022/07/21 01:41:59;;;;;;;0.20;0.00;;;25.20;99.90;;;;;;25698443;23;20206;-71
2022/07/21 01:52:03;;;;;;;0.20;0.00;;;25.20;99.90;;;;;;25672388;23;20166;-70
2022/07/21 02:02:09;;;;;;;0.20;0.00;;;25.20;99.90;;;;;;25672380;23;20218;-70
2022/07/21 02:12:12;;;;;;;0.20;0.00;;;25.00;99.90;;;;;;25697443;23;20182;-69
2022/07/21 02:22:17;;;;;;;0.20;0.00;;;24.60;99.90;;;;;;25671031;23;20210;-70
2022/07/21 02:32:21;;;;;;;0.20;0.00;;;24.50;99.90;;;;;;25695918;23;20169;-69
2022/07/21 02:42:26;;;;;;;0.20;0.00;;;24.50;99.90;;;;;;25696128;23;20270;-70
2022/07/21 02:52:31;;;;;;;0.20;0.05;;;24.60;99.90;;;;;;25695702;23;20186;-68
2022/07/21 03:02:36;;;;;;;0.20;0.00;;;24.50;99.90;;;;;;25693908;23;20256;-68
2022/07/21 03:12:40;;;;;;;0.20;0.00;;;24.50;99.90;;;;;;25695452;23;20161;-68
2022/07/21 03:22:45;;;;;;;0.20;0.00;;;24.50;99.90;;;;;;25695196;23;20202;-68
2022/07/21 03:32:50;;;;;;;0.20;0.00;;;24.50;99.90;;;;;;25695276;23;20174;-69
2022/07/21 03:42:56;;;;;;;0.20;0.00;;;24.50;99.90;;;;;;25695260;23;20205;-70
2022/07/21 03:53:00;;;;;;;0.20;0.10;;;24.50;99.90;;;;;;25676320;23;20171;-68
2022/07/21 04:03:06;;;;;;;0.20;0.00;;;24.40;99.90;;;;;;25701355;23;20221;-69
2022/07/21 04:13:12;;;;;;;0.20;0.00;;;24.40;99.90;;;;;;25675300;23;20190;-70
2022/07/21 04:23:18;;;;;;;0.20;0.00;;;24.40;99.90;;;;;;25674650;23;20278;-70
2022/07/21 04:33:22;;;;;;;0.20;0.00;;;24.20;99.90;;;;;;25674426;23;20166;-71
2022/07/21 04:43:27;;;;;;;0.20;0.00;;;24.00;99.90;;;;;;25673918;23;20202;-70
2022/07/21 04:53:31;;;;;;;0.20;0.00;;;23.90;99.90;;;;;;25673473;23;20232;-69
2022/07/21 05:03:36;;;;;;;0.20;0.00;;;24.00;99.90;;;;;;25698290;23;20226;-70
2022/07/21 05:13:40;;;;;;;0.20;0.00;;;24.00;99.90;;;;;;25673200;23;20176;-70
2022/07/21 05:23:46;;;;;;;0.20;0.00;;;24.20;99.90;;;;;;25697499;23;20197;-70
2022/07/21 05:33:50;;;;;;;0.20;0.00;;;24.40;99.90;;;;;;25697440;23;20204;-70
2022/07/21 05:43:56;;;;;;;0.20;0.00;;;24.40;99.90;;;;;;25668760;23;20716;-70
2022/07/21 05:53:59;;;;;;;0.20;0.05;;;24.80;99.90;;;;;;25693791;23;20202;-70
2022/07/21 06:04:05;;;;;;;0.20;0.10;;;25.40;99.90;;;;;;25694749;23;20202;-71
2022/07/21 06:14:09;;;;;;;0.20;0.00;;;25.90;99.90;;;;;;25695191;23;20227;-70
2022/07/21 06:24:15;;;;;;;0.20;0.00;;;26.30;99.90;;;;;;25668273;23;20189;-71
2022/07/21 06:34:19;;;;;;;0.20;0.00;;;26.70;99.90;;;;;;25694594;23;20170;-71
2022/07/21 06:44:24;;;;;;;0.20;0.00;;;27.10;99.90;;;;;;25667036;23;20190;-71
2022/07/21 06:54:28;;;;;;;0.20;0.00;;;27.50;99.90;;;;;;25663708;23;20226;-71
2022/07/21 07:04:33;;;;;;;0.20;0.00;;;27.90;99.90;;;;;;25663205;23;20209;-70
2022/07/21 07:14:37;;;;;;;0.20;0.00;;;28.20;99.90;;;;;;25691180;23;20167;-71
2022/07/21 07:24:43;;;;;;;0.20;0.00;;;27.90;99.90;;;;;;25697921;23;20190;-71
2022/07/21 07:34:47;;;;;;;0.20;0.00;;;27.90;99.90;;;;;;25648582;23;20201;-70
2022/07/21 07:44:52;;;;;;;0.20;0.00;;;27.90;99.90;;;;;;25673017;23;20241;-69
2022/07/21 07:54:56;;;;;;;0.20;0.00;;;28.10;99.90;;;;;;25697128;23;20172;-70
2022/07/21 08:05:08;;;;;;;0.20;0.00;;;28.20;99.90;;;;;;25698197;23;20217;-68
2022/07/21 08:15:12;;;;;;;0.20;0.00;;;28.40;99.90;;;;;;25696220;23;20158;-69
2022/07/21 08:25:17;;;;;;;0.20;0.00;;;28.60;99.90;;;;;;25670931;23;20285;-70
2022/07/21 08:35:21;;;;;;;0.20;0.00;;;28.80;99.90;;;;;;25670772;23;20193;-68
2022/07/21 08:45:27;;;;;;;0.20;0.00;;;29.00;99.90;;;;;;25695831;23;20185;-69
2022/07/21 08:55:32;;;;;;;0.20;0.00;;;29.10;99.90;;;;;;25695191;23;20158;-71
2022/07/21 09:05:37;;;;;;;0.20;0.00;;;29.40;99.90;;;;;;25694795;23;20217;-69
2022/07/21 09:15:41;;;;;;;0.20;0.00;;;29.80;99.90;;;;;;25696007;23;20174;-70
2022/07/21 09:25:48;;;;;;;0.20;0.00;;;29.70;99.90;;;;;;25696315;23;20197;-69
2022/07/21 09:36:04;;;;;;;0.20;0.00;;;29.60;99.90;;;;;;25667720;23;20177;-70
2022/07/21 09:46:15;;;;;;;0.20;0.00;;;29.50;99.90;;;;;;25663454;23;20194;-70
2022/07/21 09:56:19;;;;;;;0.20;0.00;;;29.50;99.90;;;;;;25681470;23;20173;-69
2022/07/21 10:06:27;;;;;;;0.20;0.00;;;29.90;99.90;;;;;;25680577;23;20293;-70
2022/07/21 10:16:31;;;;;;;0.20;0.00;;;30.30;99.90;;;;;;25680990;23;20271;-71
2022/07/21 10:26:36;;;;;;;0.20;0.05;;;30.50;99.90;;;;;;25679358;23;20194;-70
2022/07/21 10:36:47;;;;;;;0.20;0.10;;;30.70;99.90;;;;;;25679757;23;20233;-71
2022/07/21 10:47:03;;;;;;;0.20;0.00;;;30.60;99.90;;;;;;25681076;23;20193;-70
2022/07/21 10:57:31;;;;;;;0.20;0.10;;;30.70;99.90;;;;;;25656768;23;20257;-71
2022/07/21 11:08:07;;;;;;;0.20;0.00;;;30.70;99.90;;;;;;25686090;23;20202;-71
2022/07/21 11:18:17;;;;;;;0.20;0.00;;;31.40;99.90;;;;;;25685551;23;20160;-71
2022/07/21 11:28:21;;;;;;;0.20;0.00;;;31.20;99.90;;;;;;25686615;23;20208;-72
2022/07/21 11:38:27;;;;;;;0.20;0.00;;;32.40;99.90;;;;;;25685888;23;20170;-72
2022/07/21 11:48:34;;;;;;;0.20;0.00;;;33.40;99.90;;;;;;25680408;23;20178;-71
2022/07/21 11:58:39;;;;;;;0.20;0.00;;;34.40;99.90;;;;;;25680533;23;20224;-70
2022/07/21 12:08:48;;;;;;;0.20;0.00;;;34.60;99.90;;;;;;25678863;23;20201;-72
2022/07/21 12:19:11;;;;;;;0.20;0.00;;;34.10;99.90;;;;;;25657658;23;20273;-68
2022/07/21 12:29:27;;;;;;;0.20;0.00;;;34.60;99.90;;;;;;25658694;23;20365;-69
2022/07/21 12:49:58;;;;;;;0.20;0.00;;;35.30;99.90;;;;;;25683002;23;20197;-70
2022/07/21 13:00:19;;;;;;;0.20;0.00;;;35.20;99.90;;;;;;25691209;23;20253;-69
2022/07/21 13:10:23;;;;;;;0.20;0.00;;;35.90;99.90;;;;;;25681107;23;20186;-70
2022/07/21 13:20:29;;;;;;;0.20;0.00;;;35.50;99.90;;;;;;25682268;23;20182;-73
2022/07/21 13:30:33;;;;;;;0.20;0.00;;;35.10;99.90;;;;;;25630739;23;20217;-70
2022/07/21 13:40:46;;;;;;;0.20;0.00;;;35.70;99.90;;;;;;25682974;23;20176;-71
2022/07/21 13:51:10;;;;;;;0.20;0.00;;;35.70;99.90;;;;;;25651722;23;20186;-69
2022/07/21 14:01:15;;;;;;;0.20;0.00;;;35.50;99.90;;;;;;25650885;23;20194;-71
2022/07/21 14:11:22;;;;;;;0.20;0.00;;;35.80;99.90;;;;;;25675765;23;20269;-72
2022/07/21 14:21:28;;;;;;;0.20;0.00;;;36.10;99.90;;;;;;25671241;23;20265;-72
2022/07/21 14:31:32;;;;;;;0.20;0.00;;;35.80;99.90;;;;;;25648149;23;20205;-72
2022/07/21 14:41:38;;;;;;;0.20;0.00;;;37.30;99.90;;;;;;25676108;23;20189;-72
2022/07/21 14:51:42;;;;;;;0.20;0.00;;;36.70;99.90;;;;;;25675963;23;20242;-70
2022/07/21 15:01:50;;;;;;;0.20;0.00;;;36.70;99.90;;;;;;25674961;23;20202;-69
2022/07/21 15:11:54;;;;;;;0.20;0.00;;;35.80;99.90;;;;;;25648813;23;20186;-71
2022/07/21 15:22:03;;;;;;;0.20;0.00;;;36.30;99.90;;;;;;25675100;23;20213;-72
2022/07/21 15:32:07;;;;;;;0.20;0.00;;;36.80;99.90;;;;;;25673433;23;20178;-71
2022/07/21 15:42:12;;;;;;;0.20;0.00;;;37.10;99.90;;;;;;25652072;23;20258;-72
2022/07/21 15:52:16;;;;;;;0.20;0.00;;;36.60;99.90;;;;;;25655608;23;20158;-70
2022/07/21 16:02:22;;;;;;;0.20;0.00;;;35.50;99.90;;;;;;25656280;23;20240;-71
2022/07/21 16:12:26;;;;;;;0.20;0.00;;;35.60;99.90;;;;;;25683563;23;20158;-71
2022/07/21 16:22:31;;;;;;;0.20;0.00;;;33.60;99.90;;;;;;25681823;23;20170;-69
2022/07/21 16:32:35;;;;;;;0.20;0.00;;;32.00;99.90;;;;;;25681447;23;20221;-71
2022/07/21 16:42:40;;;;;;;0.20;0.00;;;31.70;99.90;;;;;;25680104;23;20274;-71
2022/07/21 16:52:44;;;;;;;0.20;0.00;;;31.50;99.90;;;;;;25678612;23;20189;-71
2022/07/21 17:02:49;;;;;;;0.20;0.00;;;31.40;99.90;;;;;;25677150;23;20205;-72
2022/07/21 17:12:53;;;;;;;0.20;0.00;;;31.70;99.90;;;;;;25664197;23;20178;-72
2022/07/21 17:22:58;;;;;;;0.20;0.00;;;33.40;99.90;;;;;;25665141;23;20186;-72
2022/07/21 17:33:03;;;;;;;0.20;0.00;;;33.60;99.90;;;;;;25691089;23;20178;-70
2022/07/21 17:43:10;;;;;;;0.20;0.00;;;33.80;99.90;;;;;;25659985;23;20190;-72
2022/07/21 17:53:14;;;;;;;0.20;0.00;;;33.70;99.90;;;;;;25690354;23;20170;-71
2022/07/21 18:03:19;;;;;;;0.20;0.00;;;33.20;99.90;;;;;;25692237;23;20848;-71
2022/07/21 18:13:23;;;;;;;0.20;0.08;;;33.10;99.90;;;;;;25692249;23;20197;-71
2022/07/21 18:23:29;;;;;;;0.20;0.00;;;32.20;99.90;;;;;;25685141;23;20197;-71
2022/07/21 18:33:32;;;;;;;0.20;0.00;;;31.40;99.90;;;;;;25683523;23;20243;-71
2022/07/21 18:43:39;;;;;;;0.20;0.00;;;31.10;99.90;;;;;;25690031;23;20190;-70
2022/07/21 18:53:43;;;;;;;0.20;0.00;;;30.30;99.90;;;;;;25685684;23;20162;-70
2022/07/21 19:03:48;;;;;;;0.20;0.00;;;29.20;99.90;;;;;;25683302;23;20202;-70
2022/07/21 19:13:53;;;;;;;0.20;0.00;;;28.70;99.90;;;;;;25692052;23;20162;-71
2022/07/21 19:23:59;;;;;;;0.20;0.00;;;28.30;99.90;;;;;;25671503;23;20204;-70
2022/07/21 19:34:03;;;;;;;0.20;0.00;;;28.20;99.90;;;;;;25671639;23;20186;-70
2022/07/21 19:44:08;;;;;;;0.20;0.00;;;28.00;99.90;;;;;;25695475;23;20229;-69
2022/07/21 19:54:12;;;;;;;0.20;0.00;;;27.90;99.90;;;;;;25689632;23;20174;-72
2022/07/21 20:04:18;;;;;;;0.20;0.00;;;27.80;99.90;;;;;;25692255;23;20205;-70
2022/07/21 20:14:23;;;;;;;0.20;0.00;;;27.70;99.90;;;;;;25695573;23;20166;-70
2022/07/21 20:24:28;;;;;;;0.20;0.00;;;27.70;99.90;;;;;;25669283;23;20193;-70
2022/07/21 20:34:32;;;;;;;0.20;0.00;;;27.50;99.90;;;;;;25670882;23;20182;-71
2022/07/21 20:44:38;;;;;;;0.20;0.10;;;27.50;99.90;;;;;;25698496;23;20229;-69
2022/07/21 20:54:43;;;;;;;0.20;0.00;;;27.60;99.90;;;;;;25688054;23;20217;-70
2022/07/21 21:04:48;;;;;;;0.20;0.03;;;27.40;99.90;;;;;;25684712;23;20278;-71
2022/07/21 21:14:52;;;;;;;0.20;0.00;;;27.20;99.90;;;;;;25657347;23;20174;-70
2022/07/21 21:24:58;;;;;;;0.20;0.00;;;26.80;99.90;;;;;;25684314;23;20368;-71
2022/07/21 21:35:02;;;;;;;0.20;0.00;;;26.70;99.90;;;;;;25682072;23;20226;-70
2022/07/21 21:45:08;;;;;;;0.20;0.00;;;26.50;99.90;;;;;;25680499;23;20270;-70
2022/07/21 21:55:12;;;;;;;0.20;0.00;;;26.30;99.90;;;;;;25681387;23;20167;-71
2022/07/21 22:05:18;;;;;;;0.20;0.10;;;26.20;99.90;;;;;;25680298;23;20202;-70
2022/07/21 22:15:21;;;;;;;0.20;0.00;;;26.10;99.90;;;;;;25689136;23;20701;-70
2022/07/21 22:25:27;;;;;;;0.20;0.00;;;25.70;99.90;;;;;;25695707;23;20221;-70
2022/07/21 22:35:31;;;;;;;0.20;0.00;;;25.90;99.90;;;;;;25694860;23;20166;-70
2022/07/21 22:45:36;;;;;;;0.20;0.00;;;25.70;99.90;;;;;;25670155;23;20190;-71
2022/07/21 22:55:40;;;;;;;0.20;0.00;;;25.60;99.90;;;;;;25694320;23;20178;-70
2022/07/21 23:05:45;;;;;;;0.20;0.10;;;25.50;99.90;;;;;;25694275;23;20221;-70
2022/07/21 23:15:49;;;;;;;0.20;0.00;;;25.40;99.90;;;;;;25668011;23;20190;-70
2022/07/21 23:25:54;;;;;;;0.20;0.00;;;25.20;99.90;;;;;;25688245;23;20193;-72
2022/07/21 23:35:58;;;;;;;0.20;0.10;;;25.10;99.90;;;;;;25682769;23;20261;-73
2022/07/21 23:46:04;;;;;;;0.20;0.00;;;24.80;99.90;;;;;;25682462;23;20189;-72
2022/07/21 23:56:08;;;;;;;0.20;0.00;;;24.80;99.90;;;;;;25682771;23;20165;-72
